createdAt,value
2018-12-09T00:00:34.451Z,90.35
2018-12-09T00:01:34.440Z,90.04
2018-12-09T00:02:34.435Z,90.66
2018-12-09T00:03:34.445Z,90.97
2018-12-09T00:04:34.413Z,91.28
2018-12-09T00:05:34.430Z,92.00
2018-12-09T00:06:34.388Z,92.00
2018-12-09T00:07:34.382Z,91.69
2018-12-09T00:08:34.365Z,92.00
2018-12-09T00:09:34.362Z,92.72
2018-12-09T00:10:34.345Z,92.00
2018-12-09T00:11:34.357Z,92.82
2018-12-09T00:12:34.332Z,92.46
2018-12-09T00:13:34.318Z,92.66
2018-12-09T00:14:34.303Z,92.04
2018-12-09T00:15:34.292Z,91.83
2018-12-09T00:16:34.337Z,92.04
2018-12-09T00:17:34.268Z,91.89
2018-12-09T00:18:34.261Z,92.46
2018-12-09T00:19:34.272Z,92.25
2018-12-09T00:20:34.240Z,92.35
2018-12-09T00:21:34.254Z,92.41
2018-12-09T00:22:34.217Z,92.86
2018-12-09T00:23:34.214Z,92.66
2018-12-09T00:24:34.201Z,92.76
2018-12-09T00:25:34.207Z,91.83
2018-12-09T00:26:34.174Z,93.07
2018-12-09T00:27:34.199Z,92.76
2018-12-09T00:28:34.153Z,91.73
2018-12-09T00:29:34.151Z,92.86
2018-12-09T00:30:34.137Z,93.59
2018-12-09T00:31:34.121Z,94.21
2018-12-09T00:32:34.111Z,93.94
2018-12-09T00:33:34.120Z,94.35
2018-12-09T00:34:34.090Z,94.10
2018-12-09T00:35:34.078Z,94.77
2018-12-09T00:36:34.105Z,95.70
2018-12-09T00:37:34.072Z,96.01
2018-12-09T00:38:34.057Z,96.01
2018-12-09T00:39:34.036Z,95.49
2018-12-09T00:40:34.031Z,95.59
2018-12-09T00:41:34.026Z,95.80
2018-12-09T00:42:34.031Z,95.59
2018-12-09T00:43:33.999Z,95.76
2018-12-09T00:44:33.983Z,95.70
2018-12-09T00:45:33.973Z,94.82
2018-12-09T00:46:33.962Z,93.90
2018-12-09T00:47:33.973Z,95.55
2018-12-09T00:48:33.948Z,95.65
2018-12-09T00:49:33.964Z,94.82
2018-12-09T00:50:33.921Z,95.96
2018-12-09T00:51:33.915Z,95.76
2018-12-09T00:52:33.907Z,94.42
2018-12-09T00:53:33.889Z,94.82
2018-12-09T00:54:33.880Z,94.72
2018-12-09T00:55:33.901Z,94.52
2018-12-09T00:56:33.909Z,95.96
2018-12-09T00:57:33.852Z,95.96
2018-12-09T00:58:33.837Z,95.86
2018-12-09T00:59:33.830Z,95.76
2018-12-09T01:00:33.814Z,95.76
2018-12-09T01:01:33.840Z,96.27
2018-12-09T01:02:33.808Z,96.58
2018-12-09T01:03:33.789Z,96.06
2018-12-09T01:04:33.800Z,96.48
2018-12-09T01:05:33.802Z,97.09
2018-12-09T01:06:33.757Z,98.23
2018-12-09T01:07:33.742Z,97.82
2018-12-09T01:08:33.730Z,97.09
2018-12-09T01:09:33.719Z,97.30
2018-12-09T01:10:33.713Z,97.72
2018-12-09T01:11:33.719Z,97.82
2018-12-09T01:12:33.693Z,98.23
2018-12-09T01:13:33.679Z,97.77
2018-12-09T01:14:33.678Z,97.61
2018-12-09T01:15:33.669Z,98.02
2018-12-09T01:16:33.676Z,98.02
2018-12-09T01:17:33.641Z,97.41
2018-12-09T01:18:33.630Z,98.29
2018-12-09T01:19:33.621Z,98.23
2018-12-09T01:20:33.636Z,97.82
2018-12-09T01:21:33.601Z,97.56
2018-12-09T01:22:33.591Z,97.98
2018-12-09T01:23:33.578Z,97.82
2018-12-09T01:24:33.589Z,97.36
2018-12-09T01:25:33.551Z,97.88
2018-12-09T01:26:33.561Z,97.77
2018-12-09T01:27:33.536Z,97.98
2018-12-09T01:28:33.521Z,98.39
2018-12-09T01:29:33.571Z,98.08
2018-12-09T01:30:33.500Z,99.16
2018-12-09T01:31:33.492Z,99.06
2018-12-09T01:32:33.497Z,98.96
2018-12-09T01:33:33.471Z,98.85
2018-12-09T01:34:33.455Z,98.85
2018-12-09T01:35:33.451Z,98.33
2018-12-09T01:36:33.439Z,98.65
2018-12-09T01:37:33.449Z,98.75
2018-12-09T01:38:33.426Z,98.33
2018-12-09T01:39:33.404Z,98.75
2018-12-09T01:40:33.400Z,98.19
2018-12-09T01:41:33.388Z,98.75
2018-12-09T01:42:33.396Z,99.01
2018-12-09T01:43:33.364Z,98.75
2018-12-09T01:44:33.371Z,98.29
2018-12-09T01:45:33.343Z,98.75
2018-12-09T01:46:33.331Z,98.65
2018-12-09T01:47:33.322Z,98.70
2018-12-09T01:48:33.328Z,98.29
2018-12-09T01:49:33.301Z,98.29
2018-12-09T01:50:33.290Z,98.29
2018-12-09T01:51:33.279Z,98.39
2018-12-09T01:52:33.283Z,97.98
2018-12-09T01:53:33.259Z,98.33
2018-12-09T01:54:33.244Z,98.39
2018-12-09T01:55:33.235Z,98.50
2018-12-09T01:56:33.243Z,98.39
2018-12-09T01:57:33.212Z,98.50
2018-12-09T01:58:33.203Z,98.50
2018-12-09T01:59:33.188Z,98.80
2018-12-09T02:00:33.179Z,99.22
2018-12-09T02:01:33.207Z,98.60
2018-12-09T02:02:33.166Z,98.91
2018-12-09T02:03:33.151Z,98.80
2018-12-09T02:04:33.140Z,99.01
2018-12-09T02:05:33.131Z,98.91
2018-12-09T02:06:33.118Z,98.60
2018-12-09T02:07:33.124Z,98.91
2018-12-09T02:08:33.091Z,98.08
2018-12-09T02:09:33.081Z,98.23
2018-12-09T02:10:33.099Z,99.22
2018-12-09T02:11:33.062Z,98.80
2018-12-09T02:12:33.069Z,98.60
2018-12-09T02:13:33.059Z,98.91
2018-12-09T02:14:33.036Z,98.70
2018-12-09T02:15:33.017Z,98.60
2018-12-09T02:16:33.005Z,98.60
2018-12-09T02:17:33.002Z,98.70
2018-12-09T02:18:33.009Z,98.44
2018-12-09T02:19:32.979Z,98.80
2018-12-09T02:20:32.966Z,98.70
2018-12-09T02:21:32.961Z,98.70
2018-12-09T02:22:32.967Z,98.80
2018-12-09T02:23:32.957Z,97.98
2018-12-09T02:24:32.928Z,98.60
2018-12-09T02:25:32.939Z,98.70
2018-12-09T02:26:32.906Z,98.85
2018-12-09T02:27:32.939Z,99.11
2018-12-09T02:28:32.876Z,98.60
2018-12-09T02:29:32.890Z,97.88
2018-12-09T02:30:32.860Z,98.91
2018-12-09T02:31:32.852Z,99.11
2018-12-09T02:32:32.843Z,98.35
2018-12-09T02:33:32.906Z,98.29
2018-12-09T02:34:32.876Z,98.29
2018-12-09T02:35:32.804Z,98.03
2018-12-09T02:36:32.792Z,98.14
2018-12-09T02:37:32.780Z,98.66
2018-12-09T02:38:32.770Z,98.24
2018-12-09T02:39:32.764Z,97.42
2018-12-09T02:40:32.769Z,98.03
2018-12-09T02:41:32.762Z,97.73
2018-12-09T02:42:32.727Z,98.14
2018-12-09T02:43:32.720Z,97.94
2018-12-09T02:44:32.732Z,98.03
2018-12-09T02:45:32.703Z,98.03
2018-12-09T02:46:32.688Z,98.24
2018-12-09T02:47:32.677Z,98.03
2018-12-09T02:48:32.667Z,97.83
2018-12-09T02:49:32.676Z,97.48
2018-12-09T02:50:32.647Z,97.94
2018-12-09T02:51:32.656Z,97.94
2018-12-09T02:52:32.625Z,97.52
2018-12-09T02:53:32.613Z,97.38
2018-12-09T02:54:32.606Z,97.73
2018-12-09T02:55:32.594Z,97.31
2018-12-09T02:56:32.580Z,97.58
2018-12-09T02:57:32.586Z,98.10
2018-12-09T02:58:32.563Z,97.78
2018-12-09T02:59:32.552Z,97.38
2018-12-09T03:00:32.534Z,97.48
2018-12-09T03:01:32.527Z,97.99
2018-12-09T03:02:32.531Z,97.58
2018-12-09T03:03:32.508Z,96.96
2018-12-09T03:04:32.492Z,96.96
2018-12-09T03:05:32.503Z,96.55
2018-12-09T03:06:32.472Z,96.14
2018-12-09T03:07:32.480Z,96.61
2018-12-09T03:08:32.459Z,96.14
2018-12-09T03:09:32.441Z,95.93
2018-12-09T03:10:32.448Z,96.75
2018-12-09T03:11:32.417Z,96.71
2018-12-09T03:12:32.409Z,96.14
2018-12-09T03:13:32.405Z,95.78
2018-12-09T03:14:32.383Z,96.14
2018-12-09T03:15:32.377Z,96.71
2018-12-09T03:16:32.387Z,96.75
2018-12-09T03:17:32.355Z,96.75
2018-12-09T03:18:32.339Z,96.71
2018-12-09T03:19:32.361Z,97.17
2018-12-09T03:20:32.323Z,96.96
2018-12-09T03:21:32.308Z,96.55
2018-12-09T03:22:32.302Z,95.83
2018-12-09T03:23:32.292Z,96.09
2018-12-09T03:24:32.309Z,96.66
2018-12-09T03:25:32.270Z,96.24
2018-12-09T03:26:32.261Z,96.71
2018-12-09T03:27:32.243Z,96.66
2018-12-09T03:28:32.232Z,96.03
2018-12-09T03:29:32.223Z,95.83
2018-12-09T03:30:32.251Z,96.03
2018-12-09T03:31:32.201Z,95.62
2018-12-09T03:32:32.195Z,96.24
2018-12-09T03:33:34.448Z,95.83
2018-12-09T03:34:32.173Z,95.73
2018-12-09T03:35:32.159Z,95.37
2018-12-09T03:36:32.168Z,96.03
2018-12-09T03:37:32.138Z,96.34
2018-12-09T03:38:32.130Z,96.75
2018-12-09T03:39:32.119Z,96.75
2018-12-09T03:40:32.103Z,97.06
2018-12-09T03:41:32.115Z,97.06
2018-12-09T03:42:32.086Z,96.96
2018-12-09T03:43:32.075Z,97.38
2018-12-09T03:44:32.064Z,98.20
2018-12-09T03:45:32.078Z,97.78
2018-12-09T03:46:32.088Z,98.10
2018-12-09T03:47:32.030Z,98.20
2018-12-09T03:48:32.027Z,98.45
2018-12-09T03:49:32.014Z,98.97
2018-12-09T03:50:32.002Z,98.66
2018-12-09T03:51:31.991Z,98.30
2018-12-09T03:52:32.009Z,98.30
2018-12-09T03:53:31.965Z,98.14
2018-12-09T03:54:31.956Z,98.55
2018-12-09T03:55:31.948Z,98.61
2018-12-09T03:56:31.939Z,98.41
2018-12-09T03:57:31.928Z,98.41
2018-12-09T03:58:31.936Z,98.76
2018-12-09T03:59:31.903Z,98.71
2018-12-09T04:00:31.889Z,98.61
2018-12-09T04:01:31.881Z,98.55
2018-12-09T04:02:31.889Z,98.50
2018-12-09T04:03:31.861Z,98.92
2018-12-09T04:04:31.851Z,98.50
2018-12-09T04:05:31.836Z,98.61
2018-12-09T04:06:31.834Z,98.61
2018-12-09T04:07:31.850Z,98.61
2018-12-09T04:08:31.809Z,98.50
2018-12-09T04:09:31.812Z,98.71
2018-12-09T04:10:31.782Z,98.92
2018-12-09T04:11:31.776Z,98.82
2018-12-09T04:12:31.767Z,98.50
2018-12-09T04:13:31.791Z,97.99
2018-12-09T04:14:31.749Z,98.20
2018-12-09T04:15:31.735Z,98.20
2018-12-09T04:16:31.824Z,98.20
2018-12-09T04:17:31.711Z,97.89
2018-12-09T04:18:31.697Z,97.64
2018-12-09T04:19:31.724Z,97.64
2018-12-09T04:20:31.682Z,97.48
2018-12-09T04:21:31.663Z,98.05
2018-12-09T04:22:31.658Z,97.43
2018-12-09T04:23:34.858Z,97.23
2018-12-09T04:24:31.633Z,97.02
2018-12-09T04:25:31.647Z,96.71
2018-12-09T04:26:31.643Z,96.61
2018-12-09T04:27:31.607Z,95.99
2018-12-09T04:28:31.589Z,96.20
2018-12-09T04:29:31.584Z,96.61
2018-12-09T04:30:39.489Z,96.50
2018-12-09T04:31:38.920Z,95.48
2018-12-09T04:32:39.557Z,95.99
2018-12-09T04:33:39.090Z,95.58
2018-12-09T04:34:39.124Z,95.99
2018-12-09T04:35:38.589Z,95.48
2018-12-09T04:36:38.573Z,94.76
2018-12-09T04:37:38.582Z,95.68
2018-12-09T04:38:39.263Z,94.34
2018-12-09T04:39:39.302Z,93.79
2018-12-09T04:40:39.337Z,93.93
2018-12-09T04:41:39.373Z,93.88
2018-12-09T04:42:39.410Z,94.09
2018-12-09T04:43:38.495Z,92.65
2018-12-09T04:44:31.423Z,93.16
2018-12-09T04:45:38.977Z,92.76
2018-12-09T04:46:39.034Z,93.48
2018-12-09T04:47:38.462Z,92.55
2018-12-09T04:48:31.387Z,92.14
2018-12-09T04:49:31.372Z,92.03
2018-12-09T04:50:31.357Z,92.65
2018-12-09T04:51:31.349Z,91.27
2018-12-09T04:52:31.337Z,91.42
2018-12-09T04:53:31.362Z,91.42
2018-12-09T04:54:31.315Z,91.00
2018-12-09T04:55:31.308Z,91.21
2018-12-09T04:56:31.303Z,91.11
2018-12-09T04:57:31.289Z,90.75
2018-12-09T04:58:31.275Z,90.66
2018-12-09T04:59:31.286Z,90.34
2018-12-09T05:00:31.259Z,90.55
2018-12-09T05:01:31.238Z,90.96
2018-12-09T05:02:31.241Z,90.69
2018-12-09T05:03:31.217Z,91.11
2018-12-09T05:04:31.232Z,91.42
2018-12-09T05:05:31.195Z,91.62
2018-12-09T05:06:31.190Z,92.14
2018-12-09T05:07:31.176Z,91.52
2018-12-09T05:08:31.211Z,91.42
2018-12-09T05:09:31.158Z,91.42
2018-12-09T05:10:31.143Z,90.24
2018-12-09T05:11:31.136Z,90.90
2018-12-09T05:12:31.127Z,89.94
2018-12-09T05:13:31.111Z,90.14
2018-12-09T05:14:31.122Z,89.83
2018-12-09T05:15:31.107Z,90.14
2018-12-09T05:16:31.189Z,90.34
2018-12-09T05:17:31.073Z,90.55
2018-12-09T05:18:31.058Z,90.49
2018-12-09T05:19:31.047Z,90.55
2018-12-09T05:20:31.072Z,89.83
2018-12-09T05:21:31.032Z,90.55
2018-12-09T05:22:31.019Z,90.24
2018-12-09T05:23:31.009Z,90.08
2018-12-09T05:24:30.993Z,90.14
2018-12-09T05:25:30.984Z,90.24
2018-12-09T05:26:30.999Z,89.94
2018-12-09T05:27:30.967Z,89.52
2018-12-09T05:28:30.955Z,89.73
2018-12-09T05:29:30.945Z,89.62
2018-12-09T05:30:30.935Z,89.52
2018-12-09T05:31:30.938Z,90.24
2018-12-09T05:32:30.934Z,89.01
2018-12-09T05:33:30.902Z,88.59
2018-12-09T05:34:30.891Z,87.77
2018-12-09T05:35:30.881Z,88.39
2018-12-09T05:36:30.891Z,88.59
2018-12-09T05:37:30.865Z,88.18
2018-12-09T05:38:30.844Z,89.01
2018-12-09T05:39:30.838Z,87.67
2018-12-09T05:40:30.822Z,88.59
2018-12-09T05:41:30.853Z,89.42
2018-12-09T05:42:30.812Z,89.52
2018-12-09T05:43:30.793Z,89.11
2018-12-09T05:44:30.788Z,89.01
2018-12-09T05:45:30.776Z,90.34
2018-12-09T05:46:30.758Z,90.80
2018-12-09T05:47:30.776Z,91.00
2018-12-09T05:48:30.738Z,90.69
2018-12-09T05:49:30.731Z,90.90
2018-12-09T05:50:30.717Z,91.31
2018-12-09T05:51:30.706Z,91.21
2018-12-09T05:52:30.700Z,91.00
2018-12-09T05:53:30.710Z,91.21
2018-12-09T05:54:30.679Z,91.83
2018-12-09T05:55:30.671Z,91.11
2018-12-09T05:56:30.653Z,90.28
2018-12-09T05:57:30.663Z,89.87
2018-12-09T05:58:30.631Z,89.67
2018-12-09T05:59:30.648Z,90.08
2018-12-09T06:00:30.616Z,89.56
2018-12-09T06:01:30.607Z,89.25
2018-12-09T06:02:30.589Z,88.64
2018-12-09T06:03:30.602Z,88.84
2018-12-09T06:04:30.586Z,88.02
2018-12-09T06:05:30.556Z,88.49
2018-12-09T06:06:30.549Z,88.53
2018-12-09T06:07:30.544Z,88.12
2018-12-09T06:08:30.564Z,88.12
2018-12-09T06:09:30.518Z,87.57
2018-12-09T06:10:30.504Z,87.46
2018-12-09T06:11:30.494Z,87.67
2018-12-09T06:12:30.484Z,87.51
2018-12-09T06:13:30.473Z,87.05
2018-12-09T06:14:30.487Z,86.33
2018-12-09T06:15:30.472Z,87.67
2018-12-09T06:16:30.445Z,86.74
2018-12-09T06:17:30.434Z,86.74
2018-12-09T06:18:30.431Z,86.23
2018-12-09T06:19:30.417Z,86.02
2018-12-09T06:20:30.423Z,85.92
2018-12-09T06:21:30.392Z,85.20
2018-12-09T06:22:30.381Z,86.02
2018-12-09T06:23:30.366Z,86.02
2018-12-09T06:24:30.357Z,86.33
2018-12-09T06:25:30.387Z,86.33
2018-12-09T06:26:30.331Z,85.92
2018-12-09T06:27:30.323Z,86.13
2018-12-09T06:28:30.312Z,87.05
2018-12-09T06:29:30.301Z,86.54
2018-12-09T06:30:30.299Z,87.46
2018-12-09T06:31:30.302Z,88.29
2018-12-09T06:32:30.274Z,88.80
2018-12-09T06:33:30.264Z,89.22
2018-12-09T06:34:30.254Z,89.25
2018-12-09T06:35:30.246Z,89.36
2018-12-09T06:36:30.258Z,90.08
2018-12-09T06:37:30.215Z,90.59
2018-12-09T06:38:30.211Z,90.69
2018-12-09T06:39:30.217Z,90.80
2018-12-09T06:40:30.190Z,91.31
2018-12-09T06:41:30.178Z,91.87
2018-12-09T06:42:30.191Z,92.24
2018-12-09T06:43:30.156Z,92.34
2018-12-09T06:44:30.147Z,92.80
2018-12-09T06:45:30.131Z,93.01
2018-12-09T06:46:30.129Z,92.90
2018-12-09T06:47:30.132Z,92.38
2018-12-09T06:48:30.101Z,93.01
2018-12-09T06:49:30.093Z,92.80
2018-12-09T06:50:30.087Z,92.08
2018-12-09T06:51:30.068Z,91.66
2018-12-09T06:52:30.094Z,91.87
2018-12-09T06:53:30.168Z,92.08
2018-12-09T06:54:30.035Z,91.87
2018-12-09T06:55:30.030Z,91.77
2018-12-09T06:56:30.023Z,91.77
2018-12-09T06:57:30.024Z,91.56
2018-12-09T06:58:30.018Z,90.64
2018-12-09T06:59:30.001Z,90.73
2018-12-09T07:00:29.976Z,90.64
2018-12-09T07:01:30.825Z,91.62
2018-12-09T07:02:29.956Z,91.52
2018-12-09T07:03:29.952Z,90.59
2018-12-09T07:04:29.960Z,90.84
2018-12-09T07:05:29.944Z,91.11
2018-12-09T07:06:29.908Z,91.46
2018-12-09T07:07:29.907Z,91.21
2018-12-09T07:08:29.893Z,92.08
2018-12-09T07:09:29.904Z,92.14
2018-12-09T07:10:29.868Z,92.65
2018-12-09T07:11:29.861Z,92.34
2018-12-09T07:12:29.853Z,92.69
2018-12-09T07:13:29.837Z,92.59
2018-12-09T07:14:29.866Z,92.08
2018-12-09T07:15:29.818Z,92.49
2018-12-09T07:16:29.804Z,92.59
2018-12-09T07:17:29.792Z,92.69
2018-12-09T07:18:29.784Z,94.13
2018-12-09T07:19:29.777Z,93.93
2018-12-09T07:20:29.786Z,93.93
2018-12-09T07:21:29.748Z,93.73
2018-12-09T07:22:29.744Z,94.65
2018-12-09T07:23:29.737Z,95.53
2018-12-09T07:24:29.719Z,94.09
2018-12-09T07:25:29.738Z,93.99
2018-12-09T07:26:29.698Z,92.55
2018-12-09T07:27:29.690Z,92.76
2018-12-09T07:28:29.680Z,92.14
2018-12-09T07:29:29.670Z,92.65
2018-12-09T07:30:29.669Z,92.65
2018-12-09T07:31:29.682Z,92.65
2018-12-09T07:32:29.639Z,93.48
2018-12-09T07:33:29.621Z,94.03
2018-12-09T07:34:29.611Z,93.88
2018-12-09T07:35:29.605Z,93.93
2018-12-09T07:36:29.596Z,93.93
2018-12-09T07:37:29.607Z,94.24
2018-12-09T07:38:29.575Z,93.73
2018-12-09T07:39:29.564Z,93.93
2018-12-09T07:40:29.551Z,93.41
2018-12-09T07:41:29.535Z,94.03
2018-12-09T07:42:29.531Z,93.93
2018-12-09T07:43:29.530Z,93.93
2018-12-09T07:44:29.510Z,94.45
2018-12-09T07:45:29.493Z,94.03
2018-12-09T07:46:29.484Z,93.73
2018-12-09T07:47:29.477Z,93.93
2018-12-09T07:48:29.488Z,93.73
2018-12-09T07:49:29.458Z,93.83
2018-12-09T07:50:29.445Z,94.03
2018-12-09T07:51:29.430Z,93.83
2018-12-09T07:52:29.424Z,93.73
2018-12-09T07:53:29.454Z,93.62
2018-12-09T07:54:29.400Z,93.41
2018-12-09T07:55:29.388Z,93.62
2018-12-09T07:56:29.382Z,93.73
2018-12-09T07:57:29.373Z,94.03
2018-12-09T07:58:29.360Z,94.13
2018-12-09T07:59:29.361Z,93.93
2018-12-09T08:00:29.333Z,94.13
2018-12-09T08:01:29.323Z,94.45
2018-12-09T08:02:29.314Z,95.58
2018-12-09T08:03:29.321Z,95.62
2018-12-09T08:04:29.298Z,95.52
2018-12-09T08:05:29.308Z,95.17
2018-12-09T08:06:29.272Z,95.68
2018-12-09T08:07:29.259Z,95.89
2018-12-09T08:08:29.276Z,95.48
2018-12-09T08:09:29.275Z,95.78
2018-12-09T08:10:29.233Z,95.37
2018-12-09T08:11:29.223Z,95.42
2018-12-09T08:12:29.207Z,95.48
2018-12-09T08:13:29.196Z,94.55
2018-12-09T08:14:29.196Z,94.76
2018-12-09T08:15:29.193Z,95.78
2018-12-09T08:16:29.212Z,94.96
2018-12-09T08:17:29.153Z,95.78
2018-12-09T08:18:29.157Z,95.78
2018-12-09T08:19:29.156Z,95.48
2018-12-09T08:20:29.129Z,95.48
2018-12-09T08:21:29.116Z,95.78
2018-12-09T08:22:29.129Z,96.71
2018-12-09T08:23:29.094Z,96.30
2018-12-09T08:24:29.087Z,97.80
2018-12-09T08:25:29.078Z,96.97
2018-12-09T08:26:29.063Z,96.50
2018-12-09T08:27:29.096Z,96.20
2018-12-09T08:28:29.035Z,96.50
2018-12-09T08:29:29.028Z,95.99
2018-12-09T08:30:29.026Z,96.88
2018-12-09T08:31:29.003Z,97.53
2018-12-09T08:32:28.998Z,97.18
2018-12-09T08:33:29.016Z,97.08
2018-12-09T08:34:28.977Z,96.77
2018-12-09T08:35:28.966Z,96.56
2018-12-09T08:36:28.957Z,96.97
2018-12-09T08:37:28.939Z,96.88
2018-12-09T08:38:28.930Z,97.08
2018-12-09T08:39:28.941Z,97.13
2018-12-09T08:40:28.909Z,97.02
2018-12-09T08:41:28.898Z,96.81
2018-12-09T08:42:28.919Z,97.23
2018-12-09T08:43:28.875Z,96.92
2018-12-09T08:44:28.866Z,97.64
2018-12-09T08:45:28.879Z,96.61
2018-12-09T08:46:28.881Z,95.89
2018-12-09T08:47:29.831Z,95.99
2018-12-09T08:48:28.864Z,95.89
2018-12-09T08:49:28.812Z,95.99
2018-12-09T08:50:28.802Z,96.20
2018-12-09T08:51:28.805Z,96.20
2018-12-09T08:52:28.789Z,96.09
2018-12-09T08:53:28.783Z,95.68
2018-12-09T08:54:28.791Z,95.62
2018-12-09T08:55:28.761Z,95.73
2018-12-09T08:56:28.743Z,95.27
2018-12-09T08:57:28.732Z,95.48
2018-12-09T08:58:28.723Z,95.68
2018-12-09T08:59:28.742Z,94.65
2018-12-09T09:00:28.717Z,94.55
2018-12-09T09:01:28.684Z,94.13
2018-12-09T09:02:28.728Z,93.73
2018-12-09T09:03:28.663Z,93.93
2018-12-09T09:04:28.665Z,94.55
2018-12-09T09:05:28.642Z,94.13
2018-12-09T09:06:28.637Z,95.48
2018-12-09T09:07:28.626Z,95.43
2018-12-09T09:08:28.626Z,94.76
2018-12-09T09:09:28.664Z,93.68
2018-12-09T09:10:28.634Z,92.80
2018-12-09T09:11:28.583Z,93.48
2018-12-09T09:12:28.567Z,92.65
2018-12-09T09:13:28.558Z,93.01
2018-12-09T09:14:28.546Z,93.93
2018-12-09T09:15:28.543Z,93.01
2018-12-09T09:16:28.553Z,92.80
2018-12-09T09:17:28.520Z,92.76
2018-12-09T09:18:28.514Z,92.86
2018-12-09T09:19:28.499Z,92.80
2018-12-09T09:20:28.496Z,92.49
2018-12-09T09:21:28.516Z,92.69
2018-12-09T09:22:28.469Z,91.77
2018-12-09T09:23:28.456Z,92.49
2018-12-09T09:24:28.444Z,92.34
2018-12-09T09:25:28.434Z,92.44
2018-12-09T09:26:28.654Z,92.14
2018-12-09T09:27:28.457Z,92.24
2018-12-09T09:28:28.397Z,92.14
2018-12-09T09:29:28.386Z,91.62
2018-12-09T09:30:28.615Z,91.56
2018-12-09T09:31:28.393Z,90.94
2018-12-09T09:32:28.376Z,91.72
2018-12-09T09:33:28.349Z,91.93
2018-12-09T09:34:28.349Z,92.34
2018-12-09T09:35:28.332Z,91.00
2018-12-09T09:36:28.314Z,91.46
2018-12-09T09:37:28.320Z,91.56
2018-12-09T09:38:28.331Z,91.21
2018-12-09T09:39:28.432Z,91.62
2018-12-09T09:40:28.277Z,91.31
2018-12-09T09:41:28.268Z,91.15
2018-12-09T09:42:28.252Z,91.31
2018-12-09T09:43:28.242Z,91.56
2018-12-09T09:44:28.248Z,91.66
2018-12-09T09:45:28.218Z,91.56
2018-12-09T09:46:28.214Z,92.08
2018-12-09T09:47:28.194Z,91.97
2018-12-09T09:48:28.351Z,92.14
2018-12-09T09:49:28.439Z,92.55
2018-12-09T09:50:28.173Z,92.96
2018-12-09T09:51:28.160Z,92.55
2018-12-09T09:52:28.141Z,92.69
2018-12-09T09:53:28.136Z,92.24
2018-12-09T09:54:28.140Z,92.24
2018-12-09T09:55:28.115Z,92.14
2018-12-09T09:56:28.099Z,91.97
2018-12-09T09:57:28.089Z,90.59
2018-12-09T09:58:28.107Z,90.94
2018-12-09T09:59:28.072Z,91.46
2018-12-09T10:00:28.056Z,91.00
2018-12-09T10:01:28.077Z,90.39
2018-12-09T10:02:28.039Z,90.59
2018-12-09T10:03:28.025Z,91.11
2018-12-09T10:04:28.020Z,91.42
2018-12-09T10:05:28.002Z,90.49
2018-12-09T10:06:27.998Z,89.15
2018-12-09T10:07:27.999Z,89.15
2018-12-09T10:08:27.982Z,89.05
2018-12-09T10:09:27.961Z,89.36
2018-12-09T10:10:27.967Z,89.05
2018-12-09T10:11:27.944Z,89.15
2018-12-09T10:12:29.148Z,89.67
2018-12-09T10:13:27.950Z,89.67
2018-12-09T10:14:27.907Z,90.28
2018-12-09T10:15:27.898Z,90.59
2018-12-09T10:16:27.885Z,89.56
2018-12-09T10:17:27.876Z,89.36
2018-12-09T10:18:28.633Z,88.90
2018-12-09T10:19:27.883Z,88.90
2018-12-09T10:20:27.850Z,87.98
2018-12-09T10:21:27.841Z,87.98
2018-12-09T10:22:27.827Z,86.43
2018-12-09T10:23:29.611Z,86.33
2018-12-09T10:24:27.807Z,86.85
2018-12-09T10:25:27.812Z,87.92
2018-12-09T10:26:27.785Z,87.46
2018-12-09T10:27:27.784Z,87.98
2018-12-09T10:28:27.762Z,87.87
2018-12-09T10:29:27.757Z,87.87
2018-12-09T10:30:27.773Z,87.77
2018-12-09T10:31:27.734Z,87.46
2018-12-09T10:32:27.730Z,87.46
2018-12-09T10:33:27.738Z,87.46
2018-12-09T10:34:27.700Z,87.26
2018-12-09T10:35:27.689Z,86.85
2018-12-09T10:36:27.687Z,87.46
2018-12-09T10:37:27.670Z,87.57
2018-12-09T10:38:27.655Z,86.74
2018-12-09T10:39:27.658Z,87.36
2018-12-09T10:40:28.103Z,86.74
2018-12-09T10:41:27.801Z,86.64
2018-12-09T10:42:27.620Z,86.64
2018-12-09T10:43:27.602Z,85.92
2018-12-09T10:44:27.594Z,86.54
2018-12-09T10:45:28.239Z,86.19
2018-12-09T10:46:27.589Z,85.88
2018-12-09T10:47:27.557Z,86.05
2018-12-09T10:48:28.526Z,85.88
2018-12-09T10:49:27.540Z,85.74
2018-12-09T10:50:27.523Z,85.68
2018-12-09T10:51:27.529Z,85.68
2018-12-09T10:52:27.501Z,85.68
2018-12-09T10:53:27.519Z,86.70
2018-12-09T10:54:27.487Z,86.08
2018-12-09T10:55:27.471Z,85.78
2018-12-09T10:56:27.477Z,84.95
2018-12-09T10:57:27.475Z,85.57
2018-12-09T10:58:27.444Z,85.98
2018-12-09T10:59:27.425Z,85.06
2018-12-09T11:00:27.426Z,85.12
2018-12-09T11:01:27.406Z,85.33
2018-12-09T11:02:27.411Z,85.02
2018-12-09T11:03:27.392Z,84.64
2018-12-09T11:04:27.373Z,85.12
2018-12-09T11:05:27.364Z,85.53
2018-12-09T11:06:27.351Z,85.02
2018-12-09T11:07:27.389Z,84.81
2018-12-09T11:08:27.341Z,84.50
2018-12-09T11:09:27.325Z,84.16
2018-12-09T11:10:27.312Z,84.50
2018-12-09T11:11:27.300Z,83.58
2018-12-09T11:12:27.293Z,85.33
2018-12-09T11:13:27.296Z,84.50
2018-12-09T11:14:27.295Z,85.22
2018-12-09T11:15:27.262Z,84.09
2018-12-09T11:16:27.254Z,85.43
2018-12-09T11:17:27.321Z,85.02
2018-12-09T11:18:27.230Z,85.22
2018-12-09T11:19:27.237Z,85.22
2018-12-09T11:20:27.206Z,85.22
2018-12-09T11:21:30.809Z,85.16
2018-12-09T11:22:27.199Z,85.53
2018-12-09T11:23:27.242Z,85.06
2018-12-09T11:24:27.180Z,85.78
2018-12-09T11:25:27.167Z,86.19
2018-12-09T11:26:27.146Z,85.94
2018-12-09T11:27:27.134Z,86.40
2018-12-09T11:28:27.120Z,86.08
2018-12-09T11:29:27.112Z,86.08
2018-12-09T11:30:27.175Z,85.98
2018-12-09T11:31:27.086Z,85.36
2018-12-09T11:32:27.082Z,85.88
2018-12-09T11:33:27.072Z,86.08
2018-12-09T11:34:27.056Z,85.98
2018-12-09T11:35:27.066Z,86.19
2018-12-09T11:36:27.037Z,85.88
2018-12-09T11:37:27.023Z,85.92
2018-12-09T11:38:27.022Z,85.68
2018-12-09T11:39:27.005Z,85.78
2018-12-09T11:40:27.036Z,85.53
2018-12-09T11:41:26.979Z,85.12
2018-12-09T11:42:26.974Z,85.63
2018-12-09T11:43:27.072Z,85.57
2018-12-09T11:44:26.952Z,85.88
2018-12-09T11:45:26.941Z,85.78
2018-12-09T11:46:26.941Z,84.85
2018-12-09T11:47:26.940Z,84.95
2018-12-09T11:48:26.904Z,83.62
2018-12-09T11:49:26.903Z,83.83
2018-12-09T11:50:26.889Z,83.72
2018-12-09T11:51:26.878Z,83.83
2018-12-09T11:52:26.869Z,84.34
2018-12-09T11:53:26.874Z,84.30
2018-12-09T11:54:26.840Z,83.99
2018-12-09T11:55:26.838Z,84.61
2018-12-09T11:56:26.820Z,84.30
2018-12-09T11:57:26.831Z,84.54
2018-12-09T11:58:26.808Z,83.99
2018-12-09T11:59:26.791Z,84.54
2018-12-09T12:00:26.777Z,84.54
2018-12-09T12:01:26.772Z,83.99
2018-12-09T12:02:26.772Z,83.62
2018-12-09T12:03:26.765Z,83.83
2018-12-09T12:04:26.775Z,83.92
2018-12-09T12:05:26.722Z,85.36
2018-12-09T12:06:26.744Z,85.02
2018-12-09T12:07:26.705Z,84.50
2018-12-09T12:08:26.693Z,83.68
2018-12-09T12:09:26.716Z,82.96
2018-12-09T12:10:26.678Z,83.17
2018-12-09T12:11:26.659Z,83.99
2018-12-09T12:12:26.649Z,84.71
2018-12-09T12:13:26.641Z,84.44
2018-12-09T12:14:26.627Z,84.61
2018-12-09T12:15:26.640Z,84.40
2018-12-09T12:16:26.611Z,83.58
2018-12-09T12:17:26.595Z,84.20
2018-12-09T12:18:26.602Z,83.68
2018-12-09T12:19:26.588Z,85.12
2018-12-09T12:20:26.606Z,84.81
2018-12-09T12:21:26.581Z,84.30
2018-12-09T12:22:26.556Z,83.89
2018-12-09T12:23:26.545Z,83.99
2018-12-09T12:24:26.523Z,84.50
2018-12-09T12:25:26.513Z,85.22
2018-12-09T12:26:26.517Z,85.02
2018-12-09T12:27:26.493Z,85.02
2018-12-09T12:28:26.478Z,85.33
2018-12-09T12:29:26.473Z,84.61
2018-12-09T12:30:26.460Z,85.33
2018-12-09T12:31:26.478Z,85.12
2018-12-09T12:32:26.454Z,85.22
2018-12-09T12:33:26.429Z,85.02
2018-12-09T12:34:26.417Z,85.43
2018-12-09T12:35:26.416Z,84.03
2018-12-09T12:36:26.437Z,84.75
2018-12-09T12:37:26.383Z,85.16
2018-12-09T12:38:26.372Z,85.16
2018-12-09T12:39:26.369Z,85.47
2018-12-09T12:40:26.348Z,85.47
2018-12-09T12:41:26.336Z,85.88
2018-12-09T12:42:26.350Z,85.33
2018-12-09T12:43:26.324Z,85.26
2018-12-09T12:44:26.310Z,85.47
2018-12-09T12:45:26.301Z,85.47
2018-12-09T12:46:26.311Z,85.78
2018-12-09T12:47:26.316Z,85.78
2018-12-09T12:48:26.262Z,85.88
2018-12-09T12:49:26.258Z,85.88
2018-12-09T12:50:26.245Z,85.98
2018-12-09T12:51:26.239Z,86.08
2018-12-09T12:52:26.223Z,86.70